createdAt,value
2023-01-31T00:00:34.313Z,7.0
2023-01-31T00:01:35.519Z,8.2
2023-01-31T00:02:33.964Z,6.8
2023-01-31T00:03:35.257Z,7.5
2023-01-31T00:04:34.979Z,6.7
2023-01-31T00:05:34.294Z,7.5
2023-01-31T00:06:35.610Z,6.3
2023-01-31T00:07:33.988Z,7.2
2023-01-31T00:08:35.061Z,6.8
2023-01-31T00:09:35.065Z,6.8
2023-01-31T00:10:34.935Z,6.6
2023-01-31T00:11:35.027Z,6.3
2023-01-31T00:12:33.936Z,7.0
2023-01-31T00:13:34.971Z,6.5
2023-01-31T00:14:34.841Z,8.5
2023-01-31T00:15:35.038Z,7.2
2023-01-31T00:16:34.172Z,7.6
2023-01-31T00:17:34.016Z,7.9
2023-01-31T00:18:34.955Z,7.4
2023-01-31T00:19:34.913Z,7.2
2023-01-31T00:20:34.765Z,6.4
2023-01-31T00:21:34.883Z,6.7
2023-01-31T00:22:33.980Z,6.9
2023-01-31T00:23:35.114Z,6.5
2023-01-31T00:24:34.855Z,8.1
2023-01-31T00:25:34.824Z,7.3
2023-01-31T00:26:34.952Z,6.7
2023-01-31T00:27:34.013Z,7.3
2023-01-31T00:28:34.822Z,7.4
2023-01-31T00:29:34.694Z,8.6
2023-01-31T00:30:34.736Z,7.2
2023-01-31T00:31:35.077Z,9.3
2023-01-31T00:32:34.968Z,8.1
2023-01-31T00:33:35.086Z,7.6
2023-01-31T00:34:34.721Z,6.3
2023-01-31T00:35:37.215Z,8.7
2023-01-31T00:36:35.041Z,7.5
2023-01-31T00:37:33.969Z,8.4
2023-01-31T00:38:34.896Z,6.8
2023-01-31T00:39:34.700Z,7.1
2023-01-31T00:40:34.604Z,7.2
2023-01-31T00:41:36.113Z,7.4
2023-01-31T00:42:34.725Z,7.4
2023-01-31T00:43:34.792Z,7.6
2023-01-31T00:44:34.614Z,6.8
2023-01-31T00:45:34.668Z,8.2
2023-01-31T00:46:34.889Z,8.1
2023-01-31T00:47:34.413Z,6.8
2023-01-31T00:48:35.259Z,7.3
2023-01-31T00:49:35.318Z,5.4
2023-01-31T00:50:35.339Z,6.7
2023-01-31T00:51:35.189Z,8.0
2023-01-31T00:52:35.272Z,7.8
2023-01-31T00:53:35.062Z,6.8
2023-01-31T00:54:34.944Z,6.8
2023-01-31T00:55:34.880Z,6.6
2023-01-31T00:56:34.637Z,6.9
2023-01-31T00:57:35.221Z,6.0
2023-01-31T00:58:35.086Z,6.1
2023-01-31T00:59:34.912Z,8.4
2023-01-31T01:00:35.010Z,7.6
2023-01-31T01:01:35.121Z,6.8
2023-01-31T01:02:34.843Z,7.6
2023-01-31T01:03:35.403Z,6.5
2023-01-31T01:04:35.128Z,6.7
2023-01-31T01:05:34.939Z,7.6
2023-01-31T01:06:34.652Z,7.6
2023-01-31T01:07:34.242Z,6.0
2023-01-31T01:08:35.435Z,8.5
2023-01-31T01:09:34.969Z,6.3
2023-01-31T01:10:34.399Z,6.5
2023-01-31T01:11:34.492Z,5.8
2023-01-31T01:12:34.755Z,8.1
2023-01-31T01:13:34.934Z,7.5
2023-01-31T01:14:34.746Z,6.9
2023-01-31T01:15:36.427Z,6.7
2023-01-31T01:16:36.790Z,7.5
2023-01-31T01:17:34.396Z,8.0
2023-01-31T01:18:34.837Z,7.6
2023-01-31T01:19:34.312Z,6.6
2023-01-31T01:20:34.885Z,7.5
2023-01-31T01:21:34.858Z,7.0
2023-01-31T01:22:34.716Z,6.0
2023-01-31T01:23:34.585Z,6.2
2023-01-31T01:24:34.793Z,7.5
2023-01-31T01:25:43.796Z,6.2
2023-01-31T01:26:35.105Z,7.7
2023-01-31T01:27:34.848Z,6.5
2023-01-31T01:28:34.454Z,7.3
2023-01-31T01:29:34.290Z,7.2
2023-01-31T01:30:36.527Z,6.5
2023-01-31T01:31:36.711Z,6.2
2023-01-31T01:32:34.407Z,6.0
2023-01-31T01:33:34.727Z,6.3
2023-01-31T01:34:34.391Z,7.3
2023-01-31T01:35:34.803Z,7.5
2023-01-31T01:36:35.912Z,5.9
2023-01-31T01:37:34.403Z,7.0
2023-01-31T01:38:34.917Z,7.0
2023-01-31T01:39:34.470Z,7.5
2023-01-31T01:40:35.048Z,8.2
2023-01-31T01:41:35.049Z,7.4
2023-01-31T01:42:34.627Z,8.8
2023-01-31T01:43:51.782Z,6.4
2023-01-31T01:44:47.554Z,6.9
2023-01-31T01:45:33.938Z,7.8
2023-01-31T01:46:37.647Z,7.8
2023-01-31T01:47:39.455Z,6.7
2023-01-31T01:48:34.260Z,6.5
2023-01-31T01:49:35.060Z,6.9
2023-01-31T01:50:47.746Z,7.7
2023-01-31T01:51:34.148Z,5.9
2023-01-31T01:52:37.177Z,7.0
2023-01-31T01:53:37.469Z,7.0
2023-01-31T01:54:42.021Z,6.2
2023-01-31T01:55:42.018Z,7.2
2023-01-31T01:56:36.626Z,6.7
2023-01-31T01:57:36.273Z,6.4
2023-01-31T01:58:47.149Z,8.2
2023-01-31T01:59:38.744Z,7.4
2023-01-31T02:00:36.097Z,7.1
2023-01-31T02:01:36.254Z,7.0
2023-01-31T02:02:34.851Z,6.5
2023-01-31T02:03:34.694Z,7.1
2023-01-31T02:04:36.868Z,7.6
2023-01-31T02:05:37.622Z,6.4
2023-01-31T02:06:34.925Z,7.7
2023-01-31T02:07:34.678Z,6.2
2023-01-31T02:08:34.996Z,6.3
2023-01-31T02:09:41.544Z,5.8
2023-01-31T02:10:38.378Z,5.9
2023-01-31T02:11:34.545Z,5.1
2023-01-31T02:12:34.845Z,6.2
2023-01-31T02:13:34.404Z,6.9
2023-01-31T02:14:34.573Z,6.5
2023-01-31T02:15:34.859Z,7.7
2023-01-31T02:16:35.161Z,6.4
2023-01-31T02:17:33.983Z,7.3
2023-01-31T02:18:34.865Z,4.6
2023-01-31T02:19:45.043Z,6.5
2023-01-31T02:20:42.551Z,6.6
2023-01-31T02:21:48.036Z,5.9
2023-01-31T02:22:41.954Z,7.4
2023-01-31T02:23:39.112Z,6.6
2023-01-31T02:24:50.514Z,6.2
2023-01-31T02:25:47.512Z,7.5
2023-01-31T02:26:41.569Z,7.0
2023-01-31T02:27:56.512Z,6.5
2023-01-31T02:28:54.539Z,6.2
2023-01-31T02:29:45.028Z,6.7
2023-01-31T02:30:39.196Z,7.3
2023-01-31T02:31:41.544Z,6.6
2023-01-31T02:32:47.525Z,6.4
2023-01-31T02:33:48.562Z,6.3
2023-01-31T02:34:45.053Z,6.3
2023-01-31T02:35:51.056Z,5.9
2023-01-31T02:36:39.026Z,5.7
2023-01-31T02:37:43.600Z,5.8
2023-01-31T02:38:39.581Z,6.4
2023-01-31T02:39:48.039Z,5.4
2023-01-31T02:40:45.052Z,6.4
2023-01-31T02:41:44.556Z,5.7
2023-01-31T02:42:38.846Z,7.2
2023-01-31T02:43:39.619Z,8.0
2023-01-31T02:44:37.930Z,6.3
2023-01-31T02:45:38.601Z,6.8
2023-01-31T02:46:39.027Z,5.2
2023-01-31T02:47:56.525Z,6.9
2023-01-31T02:48:51.083Z,10.0
2023-01-31T02:49:40.162Z,6.3
2023-01-31T02:50:51.540Z,5.9
2023-01-31T02:51:38.521Z,7.4
2023-01-31T02:52:39.222Z,6.5
2023-01-31T02:53:36.548Z,6.4
2023-01-31T02:54:35.259Z,6.1
2023-01-31T02:55:37.148Z,6.4
2023-01-31T02:56:36.477Z,7.5
2023-01-31T02:57:34.837Z,6.3
2023-01-31T02:58:36.767Z,6.6
2023-01-31T02:59:34.079Z,6.9
2023-01-31T03:00:36.689Z,6.8
2023-01-31T03:01:36.674Z,6.1
2023-01-31T03:02:34.362Z,8.0
2023-01-31T03:03:35.759Z,5.6
2023-01-31T03:04:34.074Z,6.2
2023-01-31T03:05:34.810Z,5.4
2023-01-31T03:06:39.450Z,7.7
2023-01-31T03:07:36.661Z,5.8
2023-01-31T03:08:34.463Z,5.7
2023-01-31T03:09:37.163Z,4.9
2023-01-31T03:10:39.601Z,6.2
2023-01-31T03:11:45.047Z,6.0
2023-01-31T03:12:52.461Z,6.4
2023-01-31T03:13:39.022Z,5.2
2023-01-31T03:14:53.547Z,6.8
2023-01-31T03:15:39.671Z,5.8
2023-01-31T03:16:39.476Z,6.5
2023-01-31T03:17:42.040Z,6.8
2023-01-31T03:18:39.123Z,5.9
2023-01-31T03:19:38.886Z,6.8
2023-01-31T03:20:38.644Z,6.2
2023-01-31T03:21:38.883Z,5.8
2023-01-31T03:22:37.469Z,7.4
2023-01-31T03:23:34.382Z,7.1
2023-01-31T03:24:34.360Z,5.9
2023-01-31T03:25:36.269Z,6.7
2023-01-31T03:26:34.862Z,6.0
2023-01-31T03:27:34.408Z,5.7
2023-01-31T03:28:35.505Z,6.6
2023-01-31T03:29:35.384Z,6.9
2023-01-31T03:30:39.221Z,5.8
2023-01-31T03:31:41.667Z,6.3
2023-01-31T03:32:36.559Z,5.8
2023-01-31T03:33:36.496Z,6.7
2023-01-31T03:34:34.771Z,5.6
2023-01-31T03:35:36.152Z,6.8
2023-01-31T03:36:39.079Z,6.5
2023-01-31T03:37:38.817Z,5.6
2023-01-31T03:38:36.334Z,7.2
2023-01-31T03:39:45.109Z,8.6
2023-01-31T03:40:40.484Z,5.8
2023-01-31T03:41:39.066Z,7.0
2023-01-31T03:42:38.801Z,6.0
2023-01-31T03:43:39.477Z,5.9
2023-01-31T03:44:44.578Z,7.9
2023-01-31T03:45:37.416Z,6.4
2023-01-31T03:46:36.298Z,6.5
2023-01-31T03:47:38.009Z,6.9
2023-01-31T03:48:36.399Z,6.4
2023-01-31T03:49:36.701Z,5.9
2023-01-31T03:50:37.665Z,6.3
2023-01-31T03:51:36.153Z,6.2
2023-01-31T03:52:36.443Z,5.4
2023-01-31T03:53:42.979Z,6.8
2023-01-31T03:54:37.907Z,6.1
2023-01-31T03:55:41.856Z,6.3
2023-01-31T03:56:41.590Z,6.6
2023-01-31T03:57:36.017Z,7.7
2023-01-31T03:58:37.459Z,7.8
2023-01-31T03:59:35.859Z,6.7
2023-01-31T04:00:34.948Z,5.6
2023-01-31T04:01:37.041Z,6.4
2023-01-31T04:02:35.164Z,5.8
2023-01-31T04:03:45.045Z,4.9
2023-01-31T04:04:39.762Z,6.4
2023-01-31T04:05:34.413Z,5.5
2023-01-31T04:06:34.110Z,5.9
2023-01-31T04:07:35.806Z,7.1
2023-01-31T04:08:34.771Z,6.3
2023-01-31T04:09:34.451Z,6.5
2023-01-31T04:10:34.308Z,4.6
2023-01-31T04:11:38.042Z,5.5
2023-01-31T04:12:37.254Z,6.0
2023-01-31T04:13:34.773Z,7.5
2023-01-31T04:14:34.497Z,5.4
2023-01-31T04:15:34.331Z,5.7
2023-01-31T04:16:34.222Z,5.7
2023-01-31T04:17:33.992Z,5.5
2023-01-31T04:18:37.436Z,5.3
2023-01-31T04:19:34.448Z,6.0
2023-01-31T04:20:34.307Z,6.6
2023-01-31T04:21:34.089Z,5.1
2023-01-31T04:22:34.491Z,6.6
2023-01-31T04:23:34.261Z,6.4
2023-01-31T04:24:34.025Z,6.9
2023-01-31T04:25:34.764Z,6.2
2023-01-31T04:26:35.229Z,5.0
2023-01-31T04:27:34.432Z,5.6
2023-01-31T04:28:34.342Z,6.0
2023-01-31T04:29:34.085Z,7.4
2023-01-31T04:30:33.958Z,6.4
2023-01-31T04:31:34.708Z,6.6
2023-01-31T04:32:34.452Z,6.0
2023-01-31T04:33:34.229Z,5.6
2023-01-31T04:34:34.198Z,6.9
2023-01-31T04:35:34.843Z,6.3
2023-01-31T04:36:34.676Z,5.0
2023-01-31T04:37:34.446Z,7.5
2023-01-31T04:38:34.673Z,6.8
2023-01-31T04:39:34.545Z,5.6
2023-01-31T04:40:34.306Z,5.1
2023-01-31T04:41:34.119Z,6.4
2023-01-31T04:42:34.418Z,6.0
2023-01-31T04:43:34.248Z,5.0
2023-01-31T04:44:34.043Z,6.4
2023-01-31T04:45:33.964Z,5.7
2023-01-31T04:46:34.569Z,5.4
2023-01-31T04:47:34.438Z,6.7
2023-01-31T04:48:34.227Z,5.9
2023-01-31T04:49:34.026Z,6.0
2023-01-31T04:50:34.885Z,6.1
2023-01-31T04:51:34.596Z,5.3
2023-01-31T04:52:34.433Z,5.7
2023-01-31T04:53:34.341Z,6.0
2023-01-31T04:54:34.524Z,6.4
2023-01-31T04:55:34.640Z,5.6
2023-01-31T04:56:34.152Z,6.0
2023-01-31T04:57:33.984Z,6.4
2023-01-31T04:58:34.685Z,6.6
2023-01-31T04:59:34.511Z,4.9
2023-01-31T05:00:34.678Z,6.6
2023-01-31T05:01:34.174Z,6.8
2023-01-31T05:02:34.007Z,6.2
2023-01-31T05:03:34.721Z,5.6
2023-01-31T05:04:34.503Z,4.7
2023-01-31T05:05:36.296Z,5.1
2023-01-31T05:06:34.177Z,5.4
2023-01-31T05:07:33.961Z,8.2
2023-01-31T05:08:34.712Z,6.1
2023-01-31T05:09:34.465Z,4.7
2023-01-31T05:10:34.427Z,6.3
2023-01-31T05:11:34.104Z,5.9
2023-01-31T05:12:33.934Z,6.9
2023-01-31T05:13:34.696Z,5.3
2023-01-31T05:14:34.514Z,5.5
2023-01-31T05:15:34.718Z,5.4
2023-01-31T05:16:34.253Z,5.5
2023-01-31T05:17:33.984Z,5.5
2023-01-31T05:18:34.779Z,5.5
2023-01-31T05:19:34.464Z,7.1
2023-01-31T05:20:37.351Z,7.4
2023-01-31T05:21:34.142Z,6.9
2023-01-31T05:22:33.973Z,4.8
2023-01-31T05:23:34.706Z,5.4
2023-01-31T05:24:34.848Z,4.8
2023-01-31T05:25:34.703Z,5.8
2023-01-31T05:26:34.295Z,5.4
2023-01-31T05:27:33.972Z,6.7
2023-01-31T05:28:34.742Z,6.7
2023-01-31T05:29:34.504Z,5.1
2023-01-31T05:30:34.891Z,5.8
2023-01-31T05:31:34.191Z,6.1
2023-01-31T05:32:35.894Z,5.1
2023-01-31T05:33:34.867Z,5.9
2023-01-31T05:34:34.636Z,5.1
2023-01-31T05:35:34.412Z,5.8
2023-01-31T05:36:34.229Z,6.1
2023-01-31T05:37:34.042Z,6.1
2023-01-31T05:38:34.668Z,6.7
2023-01-31T05:39:34.495Z,5.3
2023-01-31T05:40:34.295Z,5.2
2023-01-31T05:41:34.157Z,5.2
2023-01-31T05:42:34.150Z,7.2
2023-01-31T05:43:36.284Z,6.9
2023-01-31T05:44:34.520Z,6.8
2023-01-31T05:45:34.354Z,4.7
2023-01-31T05:46:34.151Z,5.4
2023-01-31T05:47:33.963Z,6.6
2023-01-31T05:48:34.715Z,5.8
2023-01-31T05:49:34.633Z,5.8
2023-01-31T05:50:34.284Z,5.6
2023-01-31T05:51:34.146Z,7.8
2023-01-31T05:52:33.928Z,6.0
2023-01-31T05:53:34.734Z,6.4
2023-01-31T05:54:34.547Z,6.4
2023-01-31T05:55:34.337Z,6.8
2023-01-31T05:56:34.151Z,6.6
2023-01-31T05:57:34.443Z,5.6
2023-01-31T05:58:34.261Z,5.9
2023-01-31T05:59:34.170Z,4.8
2023-01-31T06:00:34.731Z,5.1
2023-01-31T06:01:34.540Z,6.5
2023-01-31T06:02:34.372Z,5.8
2023-01-31T06:03:34.645Z,5.3
2023-01-31T06:04:35.652Z,5.7
2023-01-31T06:05:34.268Z,5.7
2023-01-31T06:06:34.056Z,5.4
2023-01-31T06:07:33.915Z,5.8
2023-01-31T06:08:34.607Z,7.4
2023-01-31T06:09:34.527Z,7.0
2023-01-31T06:10:34.319Z,6.0
2023-01-31T06:11:34.141Z,4.9
2023-01-31T06:12:34.055Z,6.7
2023-01-31T06:13:34.564Z,5.9
2023-01-31T06:14:34.465Z,7.0
2023-01-31T06:15:34.260Z,6.3
2023-01-31T06:16:34.082Z,5.1
2023-01-31T06:17:34.215Z,6.5
2023-01-31T06:18:34.663Z,6.4
2023-01-31T06:19:34.524Z,5.3
2023-01-31T06:20:34.516Z,5.7
2023-01-31T06:21:34.114Z,5.2
2023-01-31T06:22:34.224Z,6.3
2023-01-31T06:23:34.578Z,5.5
2023-01-31T06:24:34.422Z,7.0
2023-01-31T06:25:34.278Z,5.9
2023-01-31T06:26:34.228Z,5.2
2023-01-31T06:27:33.951Z,6.6
2023-01-31T06:28:35.566Z,5.4
2023-01-31T06:29:34.516Z,5.3
2023-01-31T06:30:34.891Z,6.2
2023-01-31T06:31:34.402Z,5.3
2023-01-31T06:32:33.916Z,5.9
2023-01-31T06:33:46.189Z,6.2
2023-01-31T06:34:34.426Z,7.0
2023-01-31T06:35:34.411Z,6.6
2023-01-31T06:36:34.192Z,7.4
2023-01-31T06:37:33.947Z,7.4
2023-01-31T06:38:34.652Z,5.8
2023-01-31T06:39:34.533Z,6.7
2023-01-31T06:40:34.544Z,5.3
2023-01-31T06:41:34.103Z,5.8
2023-01-31T06:42:33.894Z,5.2
2023-01-31T06:43:34.588Z,6.0
2023-01-31T06:44:34.431Z,5.7
2023-01-31T06:45:34.280Z,5.8
2023-01-31T06:46:34.014Z,6.1
2023-01-31T06:47:34.810Z,4.7
2023-01-31T06:48:34.574Z,6.3
2023-01-31T06:49:34.425Z,6.1
2023-01-31T06:50:34.260Z,5.5
2023-01-31T06:51:34.070Z,4.7
2023-01-31T06:52:33.866Z,6.1
2023-01-31T06:53:34.561Z,6.7
2023-01-31T06:54:34.382Z,5.5
2023-01-31T06:55:34.233Z,6.1
2023-01-31T06:56:34.041Z,6.5
2023-01-31T06:57:34.879Z,6.1
2023-01-31T06:58:34.665Z,6.1
2023-01-31T06:59:34.479Z,5.2
2023-01-31T07:00:34.359Z,5.1
2023-01-31T07:01:34.258Z,6.2
2023-01-31T07:02:33.966Z,6.5
2023-01-31T07:03:34.723Z,6.6
2023-01-31T07:04:34.055Z,6.6
2023-01-31T07:05:35.106Z,6.1
2023-01-31T07:06:34.465Z,5.3
2023-01-31T07:07:34.355Z,5.8
2023-01-31T07:08:36.057Z,6.0
2023-01-31T07:09:34.202Z,5.6
2023-01-31T07:10:34.960Z,5.4
2023-01-31T07:11:35.882Z,6.1
2023-01-31T07:12:34.425Z,5.5
2023-01-31T07:13:34.173Z,6.0
2023-01-31T07:14:34.044Z,5.1
2023-01-31T07:15:34.667Z,5.7
2023-01-31T07:16:34.569Z,5.8
2023-01-31T07:17:34.312Z,6.5
2023-01-31T07:18:34.232Z,4.9
2023-01-31T07:19:33.978Z,6.9
2023-01-31T07:20:34.753Z,5.4
2023-01-31T07:21:34.577Z,6.0
2023-01-31T07:22:34.276Z,6.1
2023-01-31T07:23:34.153Z,5.3
2023-01-31T07:24:33.907Z,5.7
2023-01-31T07:25:35.050Z,6.3
2023-01-31T07:26:34.515Z,5.2
2023-01-31T07:27:34.248Z,5.5
2023-01-31T07:28:34.127Z,6.3
2023-01-31T07:29:34.002Z,5.6
2023-01-31T07:30:34.677Z,7.2
2023-01-31T07:31:34.598Z,6.5
2023-01-31T07:32:34.324Z,5.6
2023-01-31T07:33:34.160Z,6.1
2023-01-31T07:34:33.983Z,5.8
2023-01-31T07:35:34.631Z,5.8
2023-01-31T07:36:34.493Z,6.2
2023-01-31T07:37:34.320Z,10.9
2023-01-31T07:38:34.366Z,8.7
2023-01-31T07:39:33.973Z,6.1
2023-01-31T07:40:34.684Z,6.2
2023-01-31T07:41:35.272Z,6.2
2023-01-31T07:42:34.299Z,6.9
2023-01-31T07:43:34.328Z,7.4
2023-01-31T07:44:33.954Z,7.2
2023-01-31T07:45:34.514Z,7.2
2023-01-31T07:46:34.369Z,7.6
2023-01-31T07:47:34.716Z,7.4
2023-01-31T07:48:34.610Z,10.2
2023-01-31T07:49:34.405Z,9.2
2023-01-31T07:50:34.212Z,11.3
2023-01-31T07:51:34.045Z,11.9
2023-01-31T07:52:34.795Z,11.8
2023-01-31T07:53:35.759Z,10.9
2023-01-31T07:54:34.404Z,13.4
2023-01-31T07:55:34.282Z,11.5
2023-01-31T07:56:34.116Z,10.4
2023-01-31T07:57:33.950Z,9.5
2023-01-31T07:58:34.883Z,10.8
2023-01-31T07:59:34.409Z,9.3
2023-01-31T08:00:34.255Z,10.3
2023-01-31T08:01:34.141Z,9.0
2023-01-31T08:02:33.833Z,9.8
2023-01-31T08:03:34.303Z,9.4
2023-01-31T08:04:34.224Z,9.5
2023-01-31T08:05:34.181Z,10.4
2023-01-31T08:06:34.720Z,10.7
2023-01-31T08:07:34.234Z,9.4
2023-01-31T08:08:34.522Z,8.0
2023-01-31T08:09:33.972Z,8.6
2023-01-31T08:10:34.862Z,8.7
2023-01-31T08:11:34.549Z,8.1
2023-01-31T08:12:34.855Z,9.6
2023-01-31T08:13:34.939Z,8.9
2023-01-31T08:14:34.522Z,9.5
2023-01-31T08:15:34.230Z,8.6
2023-01-31T08:16:34.723Z,9.4
2023-01-31T08:17:34.749Z,10.3
2023-01-31T08:18:34.789Z,10.0
2023-01-31T08:19:34.731Z,8.5
2023-01-31T08:20:34.250Z,8.9
2023-01-31T08:21:34.082Z,8.8
2023-01-31T08:22:34.746Z,8.9
2023-01-31T08:23:34.598Z,10.1
2023-01-31T08:24:34.428Z,9.5
2023-01-31T08:25:34.698Z,9.1
2023-01-31T08:26:34.477Z,8.2
2023-01-31T08:27:34.439Z,9.5
2023-01-31T08:28:34.114Z,8.3
2023-01-31T08:29:33.925Z,7.0
2023-01-31T08:30:38.313Z,9.7
2023-01-31T08:31:34.531Z,9.3
2023-01-31T08:32:34.392Z,9.6
2023-01-31T08:33:35.271Z,7.8
2023-01-31T08:34:34.446Z,8.4
2023-01-31T08:35:34.381Z,8.6
2023-01-31T08:36:34.338Z,8.0
2023-01-31T08:37:34.698Z,8.7
2023-01-31T08:38:34.599Z,7.9
2023-01-31T08:39:34.376Z,7.9
2023-01-31T08:40:34.181Z,7.2
2023-01-31T08:41:34.803Z,8.4
2023-01-31T08:42:34.793Z,11.6
2023-01-31T08:43:45.547Z,8.9
2023-01-31T08:44:34.400Z,7.9
2023-01-31T08:45:34.239Z,7.0
2023-01-31T08:46:34.813Z,8.2
2023-01-31T08:47:34.774Z,8.6
2023-01-31T08:48:35.249Z,7.9
2023-01-31T08:49:34.295Z,9.2
2023-01-31T08:50:34.156Z,9.2
2023-01-31T08:51:34.012Z,9.1
2023-01-31T08:52:34.616Z,8.9
2023-01-31T08:53:36.433Z,7.7
2023-01-31T08:54:34.297Z,9.3
2023-01-31T08:55:34.687Z,8.2
2023-01-31T08:56:34.433Z,8.2
2023-01-31T08:57:34.165Z,7.5
2023-01-31T08:58:35.052Z,7.0
2023-01-31T08:59:34.758Z,7.9
2023-01-31T09:00:34.827Z,8.2
2023-01-31T09:01:34.476Z,8.0
2023-01-31T09:02:34.274Z,10.8
2023-01-31T09:03:34.068Z,8.1
2023-01-31T09:04:34.702Z,8.4
2023-01-31T09:05:34.593Z,8.5
2023-01-31T09:06:34.325Z,7.6
2023-01-31T09:07:34.478Z,7.6
2023-01-31T09:08:34.016Z,8.9
2023-01-31T09:09:35.233Z,8.4
2023-01-31T09:10:34.097Z,7.1
2023-01-31T09:11:34.491Z,7.0
2023-01-31T09:12:34.485Z,7.4
2023-01-31T09:13:34.407Z,8.6
2023-01-31T09:14:34.775Z,7.4
2023-01-31T09:15:34.566Z,7.6
2023-01-31T09:16:34.430Z,7.8
2023-01-31T09:17:34.239Z,7.6
2023-01-31T09:18:35.036Z,7.6
2023-01-31T09:19:34.693Z,8.0
2023-01-31T09:20:34.533Z,7.4
2023-01-31T09:21:34.368Z,7.6
2023-01-31T09:22:35.128Z,8.7
2023-01-31T09:23:34.794Z,7.6
2023-01-31T09:24:34.280Z,7.2
2023-01-31T09:25:46.143Z,8.2
2023-01-31T09:26:34.493Z,9.1
2023-01-31T09:27:34.896Z,7.4
2023-01-31T09:28:34.021Z,8.9
2023-01-31T09:29:34.730Z,7.8
2023-01-31T09:30:34.549Z,7.6
2023-01-31T09:31:34.391Z,7.2
2023-01-31T09:32:34.443Z,7.9
2023-01-31T09:33:34.442Z,7.6
2023-01-31T09:34:34.664Z,6.8
2023-01-31T09:35:34.569Z,6.6
2023-01-31T09:36:34.472Z,6.8
2023-01-31T09:37:34.208Z,7.3
2023-01-31T09:38:34.581Z,8.1
2023-01-31T09:39:34.892Z,8.4
2023-01-31T09:40:37.755Z,8.6
2023-01-31T09:41:39.276Z,8.1
2023-01-31T09:42:36.157Z,8.1
2023-01-31T09:43:37.396Z,8.6
2023-01-31T09:44:39.616Z,7.6
2023-01-31T09:45:36.043Z,8.1
2023-01-31T09:46:36.138Z,7.7
2023-01-31T09:47:41.579Z,8.8
2023-01-31T09:48:36.979Z,7.3
2023-01-31T09:49:39.657Z,8.6
2023-01-31T09:50:41.167Z,8.0
2023-01-31T09:51:34.548Z,8.0
2023-01-31T09:52:34.644Z,8.7
2023-01-31T09:53:36.389Z,7.4
2023-01-31T09:54:36.711Z,7.2
2023-01-31T09:55:39.436Z,8.7
2023-01-31T09:56:36.864Z,7.7
2023-01-31T09:57:39.131Z,7.5
2023-01-31T09:58:52.009Z,7.2
2023-01-31T09:59:42.660Z,9.4
2023-01-31T10:00:48.057Z,9.2
2023-01-31T10:01:39.226Z,8.4
2023-01-31T10:02:39.066Z,8.0
2023-01-31T10:03:44.625Z,8.5
2023-01-31T10:04:39.669Z,8.4
2023-01-31T10:05:45.072Z,7.9
2023-01-31T10:06:39.250Z,8.5
2023-01-31T10:07:50.577Z,6.8
2023-01-31T10:08:44.568Z,7.3
2023-01-31T10:09:39.595Z,8.4
2023-01-31T10:10:48.066Z,7.8
2023-01-31T10:11:44.002Z,7.1
2023-01-31T10:12:39.073Z,8.3
2023-01-31T10:13:37.048Z,8.8
2023-01-31T10:14:42.125Z,7.6
2023-01-31T10:15:38.213Z,7.8
2023-01-31T10:16:41.614Z,9.1
2023-01-31T10:17:37.379Z,8.2
2023-01-31T10:18:37.784Z,8.2
2023-01-31T10:19:38.841Z,7.6
2023-01-31T10:20:42.063Z,8.1
2023-01-31T10:21:42.627Z,7.0
2023-01-31T10:22:39.467Z,8.6
2023-01-31T10:23:39.313Z,7.4
2023-01-31T10:24:39.844Z,7.3
2023-01-31T10:25:39.365Z,8.1
2023-01-31T10:26:36.462Z,7.3
2023-01-31T10:27:39.043Z,8.0
2023-01-31T10:28:44.591Z,6.9
2023-01-31T10:29:38.413Z,6.9
2023-01-31T10:30:45.094Z,7.5
2023-01-31T10:31:43.984Z,8.5
2023-01-31T10:32:36.600Z,8.5
2023-01-31T10:33:52.054Z,7.4
2023-01-31T10:34:39.587Z,7.5
2023-01-31T10:35:40.277Z,7.8
2023-01-31T10:36:48.593Z,8.1
2023-01-31T10:37:47.999Z,7.1
2023-01-31T10:38:39.961Z,7.2
2023-01-31T10:39:42.803Z,8.3
2023-01-31T10:40:38.211Z,7.1
2023-01-31T10:41:38.479Z,6.8
2023-01-31T10:42:36.564Z,10.0
2023-01-31T10:43:42.069Z,7.4
2023-01-31T10:44:54.093Z,8.3
2023-01-31T10:45:34.285Z,8.6
2023-01-31T10:46:35.624Z,8.8
2023-01-31T10:47:35.885Z,8.0
2023-01-31T10:48:34.446Z,8.4
2023-01-31T10:49:34.583Z,7.7
2023-01-31T10:50:41.602Z,8.2
2023-01-31T10:51:41.640Z,8.2
2023-01-31T10:52:49.760Z,7.7
2023-01-31T10:53:45.096Z,8.4
2023-01-31T10:54:39.197Z,7.9
2023-01-31T10:55:52.035Z,8.6
2023-01-31T10:56:34.651Z,9.8
2023-01-31T10:57:35.410Z,7.7
2023-01-31T10:58:35.377Z,7.2
2023-01-31T10:59:39.247Z,8.3
2023-01-31T11:00:34.425Z,8.4
2023-01-31T11:01:34.189Z,7.8
2023-01-31T11:02:34.821Z,7.3
2023-01-31T11:03:34.566Z,7.4
2023-01-31T11:04:37.159Z,7.1
2023-01-31T11:05:36.524Z,8.2
2023-01-31T11:06:34.379Z,8.4
2023-01-31T11:07:34.238Z,7.3
2023-01-31T11:08:41.352Z,8.5
2023-01-31T11:09:38.311Z,8.3
2023-01-31T11:10:39.420Z,7.4
2023-01-31T11:11:39.301Z,7.9
2023-01-31T11:12:48.124Z,7.8
2023-01-31T11:13:34.340Z,8.7
2023-01-31T11:14:34.060Z,6.4
2023-01-31T11:15:35.659Z,7.1
2023-01-31T11:16:38.714Z,8.4
2023-01-31T11:17:35.972Z,8.6
2023-01-31T11:18:36.021Z,7.4
2023-01-31T11:19:39.186Z,7.7
2023-01-31T11:20:41.586Z,7.2
2023-01-31T11:21:34.833Z,7.9
2023-01-31T11:22:35.970Z,7.7
2023-01-31T11:23:35.459Z,8.7
2023-01-31T11:24:36.629Z,7.0
2023-01-31T11:25:34.657Z,7.1
2023-01-31T11:26:36.454Z,7.9
2023-01-31T11:27:41.042Z,7.5
2023-01-31T11:28:40.275Z,8.1
2023-01-31T11:29:38.857Z,7.5
2023-01-31T11:30:35.023Z,9.8
2023-01-31T11:31:35.455Z,8.6
2023-01-31T11:32:35.830Z,8.8
2023-01-31T11:33:42.113Z,7.0
2023-01-31T11:34:34.253Z,8.9
2023-01-31T11:35:34.823Z,8.1
2023-01-31T11:36:39.258Z,8.9
2023-01-31T11:37:34.721Z,6.8
2023-01-31T11:38:33.972Z,8.1
2023-01-31T11:39:35.694Z,6.1
2023-01-31T11:40:35.763Z,8.9
2023-01-31T11:41:35.622Z,9.3
2023-01-31T11:42:34.193Z,8.2
2023-01-31T11:43:34.031Z,7.4
2023-01-31T11:44:34.787Z,9.6
2023-01-31T11:45:36.031Z,8.4
2023-01-31T11:46:44.592Z,6.0
2023-01-31T11:47:44.783Z,8.8
2023-01-31T11:48:40.749Z,9.5
2023-01-31T11:49:36.517Z,7.5
2023-01-31T11:50:38.654Z,8.8
2023-01-31T11:51:33.884Z,8.5
2023-01-31T11:52:34.804Z,8.0
2023-01-31T11:53:38.247Z,7.9
2023-01-31T11:54:34.395Z,9.1
2023-01-31T11:55:35.744Z,8.4
2023-01-31T11:56:35.681Z,9.0
2023-01-31T11:57:36.024Z,9.5
2023-01-31T11:58:36.661Z,9.6
2023-01-31T11:59:34.314Z,6.1
2023-01-31T12:00:34.152Z,8.3
2023-01-31T12:01:34.896Z,7.7
2023-01-31T12:02:39.169Z,7.1
2023-01-31T12:03:35.900Z,7.8
2023-01-31T12:04:39.311Z,7.4
2023-01-31T12:05:37.069Z,8.2
2023-01-31T12:06:35.314Z,6.8
2023-01-31T12:07:45.627Z,8.0
2023-01-31T12:08:37.922Z,8.5
2023-01-31T12:09:41.593Z,8.3
2023-01-31T12:10:39.092Z,7.1
2023-01-31T12:11:34.965Z,8.1
2023-01-31T12:12:34.880Z,7.7
2023-01-31T12:13:47.416Z,7.7
2023-01-31T12:14:39.996Z,6.8
2023-01-31T12:15:34.263Z,8.3
2023-01-31T12:16:34.729Z,9.3
2023-01-31T12:17:36.485Z,10.0
2023-01-31T12:18:42.115Z,8.6
2023-01-31T12:19:50.619Z,8.3
2023-01-31T12:20:39.544Z,8.8
2023-01-31T12:21:39.388Z,8.9
2023-01-31T12:22:52.012Z,8.5
2023-01-31T12:23:39.440Z,8.8
2023-01-31T12:24:52.569Z,6.2
2023-01-31T12:25:45.125Z,8.1
2023-01-31T12:26:41.734Z,6.8
2023-01-31T12:27:44.623Z,7.6
2023-01-31T12:28:39.517Z,8.0
2023-01-31T12:29:45.133Z,7.1
2023-01-31T12:30:42.110Z,8.7
2023-01-31T12:31:44.705Z,7.6
2023-01-31T12:32:50.601Z,7.5
2023-01-31T12:33:39.474Z,8.3
2023-01-31T12:34:50.473Z,7.3
2023-01-31T12:35:43.764Z,8.1
2023-01-31T12:36:38.965Z,8.9
2023-01-31T12:37:41.593Z,6.9
2023-01-31T12:38:54.108Z,7.3
2023-01-31T12:39:42.112Z,7.0
2023-01-31T12:40:51.545Z,7.4
2023-01-31T12:41:38.435Z,7.5
2023-01-31T12:42:45.139Z,7.5
2023-01-31T12:43:52.041Z,7.6
2023-01-31T12:44:45.122Z,8.1
2023-01-31T12:45:48.203Z,7.3
2023-01-31T12:46:44.624Z,7.9
2023-01-31T12:47:41.684Z,7.9
2023-01-31T12:48:45.106Z,7.6
2023-01-31T12:49:42.105Z,6.8
2023-01-31T12:50:39.186Z,8.5
2023-01-31T12:51:52.652Z,8.4
2023-01-31T12:52:51.148Z,8.7
2023-01-31T12:53:41.587Z,10.6
2023-01-31T12:54:48.089Z,8.7
2023-01-31T12:55:42.087Z,8.0
2023-01-31T12:56:38.992Z,8.4
2023-01-31T12:57:38.796Z,8.5
2023-01-31T12:59:06.330Z,8.9
2023-01-31T12:59:42.102Z,8.3
2023-01-31T13:00:39.212Z,7.8
2023-01-31T13:01:39.148Z,7.4
2023-01-31T13:02:38.966Z,7.3
2023-01-31T13:03:52.646Z,9.1
2023-01-31T13:04:48.997Z,7.4
2023-01-31T13:05:42.115Z,8.7
2023-01-31T13:06:36.672Z,7.3
2023-01-31T13:07:41.618Z,8.2
2023-01-31T13:08:36.869Z,9.1
2023-01-31T13:09:35.399Z,7.8
2023-01-31T13:10:38.366Z,9.8
2023-01-31T13:11:37.229Z,8.1
2023-01-31T13:12:34.906Z,8.8
2023-01-31T13:13:39.647Z,8.7
2023-01-31T13:14:40.204Z,8.8
2023-01-31T13:15:47.795Z,8.7
2023-01-31T13:16:35.685Z,8.3
2023-01-31T13:17:37.124Z,7.6
2023-01-31T13:18:34.936Z,7.7
2023-01-31T13:19:39.002Z,8.2
2023-01-31T13:20:37.014Z,7.3
2023-01-31T13:21:38.723Z,8.3
2023-01-31T13:22:38.858Z,7.9
2023-01-31T13:23:37.219Z,10.2
2023-01-31T13:24:39.763Z,8.6
2023-01-31T13:25:39.492Z,7.6
2023-01-31T13:26:39.153Z,8.8
2023-01-31T13:27:38.287Z,8.4
2023-01-31T13:28:38.878Z,7.6
2023-01-31T13:29:46.039Z,7.5
2023-01-31T13:30:37.238Z,10.5
2023-01-31T13:31:47.600Z,8.2
2023-01-31T13:32:38.114Z,7.3
2023-01-31T13:33:35.823Z,8.0
2023-01-31T13:34:51.459Z,6.9
2023-01-31T13:35:39.912Z,7.2
2023-01-31T13:36:48.084Z,7.7
2023-01-31T13:37:36.709Z,8.9
2023-01-31T13:38:36.549Z,9.8
2023-01-31T13:39:36.310Z,9.4
2023-01-31T13:40:39.297Z,9.0
2023-01-31T13:41:34.331Z,7.6
2023-01-31T13:42:34.203Z,7.9
2023-01-31T13:43:33.959Z,9.4
2023-01-31T13:44:34.805Z,8.9
2023-01-31T13:45:41.742Z,8.0